Burin Sea — VCXN — position and weather

sailwx.info

Track history (hours):
 
Tides and Currents Weather Stations Pressure Air Temp Water Temp Dewpoint Dewpoint Depression Visibility Wind Speed Wind Dir Waves Ship Positions

Burin Sea

Last reported at 2014-Oct-21 18:29 UTC. Time now 2014-Oct-25 21:11 UTC.
Position N 47°33' W 052°34'.

Length 82 m; draft 5.5 m.

Type: Tug. MMSI: 316300000.

Date/timePositionNaut miles runAvg speedWind from/ knotsBaromVisibWave heightAir tempDewpointWater temp
2014-Oct-21 18:29N 47°33' W 052°34'5 0.5
2014-Oct-21 07:27N 47°34' W 052°42'0 0.0
2014-Oct-21 05:31N 47°34' W 052°42'0 0.0
2014-Oct-21 04:05N 47°34' W 052°42'0 0.0
2014-Oct-21 03:12N 47°34' W 052°42'0 0.0
2014-Oct-21 01:16N 47°34' W 052°42'0 0.0
2014-Oct-20 21:33N 47°34' W 052°42'0 0.0
2014-Oct-20 17:27N 47°34' W 052°42'0 0.0
2014-Oct-20 15:29N 47°34' W 052°42'0 0.0
2014-Oct-20 14:23N 47°34' W 052°42'0 0.0
2014-Oct-20 13:30N 47°34' W 052°42'0 0.0
2014-Oct-20 12:33N 47°34' W 052°42'0 0.0
2014-Oct-20 11:31N 47°34' W 052°42'0 0.0
2014-Oct-20 10:29N 47°34' W 052°42'0 0.0
2014-Oct-20 09:27N 47°34' W 052°42'0 0.0
2014-Oct-20 08:30N 47°34' W 052°42'0 0.0
2014-Oct-20 07:28N 47°34' W 052°42'0 0.0
2014-Oct-20 06:29N 47°34' W 052°42'0 0.0
2014-Oct-20 05:29N 47°34' W 052°42'0 0.0
2014-Oct-20 04:30N 47°34' W 052°42'0 0.0
2014-Oct-20 03:31N 47°34' W 052°42'0 0.0
2014-Oct-20 02:28N 47°34' W 052°42'0 0.0
2014-Oct-20 01:32N 47°34' W 052°42'0 0.0
2014-Oct-20 00:30N 47°34' W 052°42'0 0.0
2014-Oct-19 21:14N 47°34' W 052°42'0 0.0
2014-Oct-19 19:30N 47°34' W 052°42'0 0.0
2014-Oct-19 18:31N 47°34' W 052°42'0 0.1
2014-Oct-19 17:33N 47°34' W 052°42'0 0.4
2014-Oct-19 16:20N 47°34' W 052°42'0 0.0
2014-Oct-19 15:30N 47°34' W 052°42'0 0.0
2014-Oct-19 14:31N 47°34' W 052°42'0 0.0
2014-Oct-19 13:30N 47°34' W 052°42'0 0.5
2014-Oct-19 12:32N 47°34' W 052°42'0 0.0
2014-Oct-19 11:31N 47°34' W 052°42'0 0.4
2014-Oct-19 10:25N 47°34' W 052°42'0 0.0
2014-Oct-19 09:30N 47°34' W 052°42'0 0.0
2014-Oct-19 08:29N 47°34' W 052°42'0 0.0
2014-Oct-19 07:33N 47°34' W 052°42'0 0.0
2014-Oct-19 06:28N 47°34' W 052°42'2 2.2
2014-Oct-19 05:30N 47°34' W 052°39'  
2014-Oct-16 23:28N 47°32' W 052°32'7 7.6
2014-Oct-16 22:30N 47°34' W 052°42'0 0.0
2014-Oct-16 21:23N 47°34' W 052°42'0 0.0
2014-Oct-16 20:30N 47°34' W 052°42'0 0.0
2014-Oct-16 19:30N 47°34' W 052°42'0 0.0
2014-Oct-16 16:32N 47°34' W 052°42'0 0.0
2014-Oct-16 15:33N 47°34' W 052°42'0 0.0
2014-Oct-15 20:34N 47°34' W 052°42'0 0.0
2014-Oct-15 19:33N 47°34' W 052°42'0 0.0
2014-Oct-15 18:33N 47°34' W 052°42'0 0.1
2014-Oct-15 17:29N 47°34' W 052°42'0 0.0
2014-Oct-15 16:18N 47°34' W 052°42'0 0.0
2014-Oct-15 15:18N 47°34' W 052°42'0 0.2
2014-Oct-15 14:28N 47°34' W 052°42'9 9.5
2014-Oct-15 13:30N 47°31' W 052°29'  
Track history (hours):
 
Tides and Currents Weather Stations Pressure Air Temp Water Temp Dewpoint Dewpoint Depression Visibility Wind Speed Wind Dir Waves Ship Positions

Burin Sea

Last reported at 2014-Oct-21 18:29 UTC. Time now 2014-Oct-25 21:11 UTC.
Position N 47°33' W 052°34'.

Length 82 m; draft 5.5 m.

Type: Tug. MMSI: 316300000.

Date/timePositionNaut miles runAvg speedWind from/ knotsBaromVisibWave heightAir tempDewpointWater temp
2014-Oct-21 18:29N 47°33' W 052°34'5 0.5
2014-Oct-21 07:27N 47°34' W 052°42'0 0.0
2014-Oct-21 05:31N 47°34' W 052°42'0 0.0
2014-Oct-21 04:05N 47°34' W 052°42'0 0.0
2014-Oct-21 03:12N 47°34' W 052°42'0 0.0
2014-Oct-21 01:16N 47°34' W 052°42'0 0.0
2014-Oct-20 21:33N 47°34' W 052°42'0 0.0
2014-Oct-20 17:27N 47°34' W 052°42'0 0.0
2014-Oct-20 15:29N 47°34' W 052°42'0 0.0
2014-Oct-20 14:23N 47°34' W 052°42'0 0.0
2014-Oct-20 13:30N 47°34' W 052°42'0 0.0
2014-Oct-20 12:33N 47°34' W 052°42'0 0.0
2014-Oct-20 11:31N 47°34' W 052°42'0 0.0
2014-Oct-20 10:29N 47°34' W 052°42'0 0.0
2014-Oct-20 09:27N 47°34' W 052°42'0 0.0
2014-Oct-20 08:30N 47°34' W 052°42'0 0.0
2014-Oct-20 07:28N 47°34' W 052°42'0 0.0
2014-Oct-20 06:29N 47°34' W 052°42'0 0.0
2014-Oct-20 05:29N 47°34' W 052°42'0 0.0
2014-Oct-20 04:30N 47°34' W 052°42'0 0.0
2014-Oct-20 03:31N 47°34' W 052°42'0 0.0
2014-Oct-20 02:28N 47°34' W 052°42'0 0.0
2014-Oct-20 01:32N 47°34' W 052°42'0 0.0
2014-Oct-20 00:30N 47°34' W 052°42'0 0.0
2014-Oct-19 21:14N 47°34' W 052°42'0 0.0
2014-Oct-19 19:30N 47°34' W 052°42'0 0.0
2014-Oct-19 18:31N 47°34' W 052°42'0 0.1
2014-Oct-19 17:33N 47°34' W 052°42'0 0.4
2014-Oct-19 16:20N 47°34' W 052°42'0 0.0
2014-Oct-19 15:30N 47°34' W 052°42'0 0.0
2014-Oct-19 14:31N 47°34' W 052°42'0 0.0
2014-Oct-19 13:30N 47°34' W 052°42'0 0.5
2014-Oct-19 12:32N 47°34' W 052°42'0 0.0
2014-Oct-19 11:31N 47°34' W 052°42'0 0.4
2014-Oct-19 10:25N 47°34' W 052°42'0 0.0
2014-Oct-19 09:30N 47°34' W 052°42'0 0.0
2014-Oct-19 08:29N 47°34' W 052°42'0 0.0
2014-Oct-19 07:33N 47°34' W 052°42'0 0.0
2014-Oct-19 06:28N 47°34' W 052°42'2 2.2
2014-Oct-19 05:30N 47°34' W 052°39'  
2014-Oct-16 23:28N 47°32' W 052°32'7 7.6
2014-Oct-16 22:30N 47°34' W 052°42'0 0.0
2014-Oct-16 21:23N 47°34' W 052°42'0 0.0
2014-Oct-16 20:30N 47°34' W 052°42'0 0.0
2014-Oct-16 19:30N 47°34' W 052°42'0 0.0
2014-Oct-16 16:32N 47°34' W 052°42'0 0.0
2014-Oct-16 15:33N 47°34' W 052°42'0 0.0
2014-Oct-15 20:34N 47°34' W 052°42'0 0.0
2014-Oct-15 19:33N 47°34' W 052°42'0 0.0
2014-Oct-15 18:33N 47°34' W 052°42'0 0.1
2014-Oct-15 17:29N 47°34' W 052°42'0 0.0
2014-Oct-15 16:18N 47°34' W 052°42'0 0.0
2014-Oct-15 15:18N 47°34' W 052°42'0 0.2
2014-Oct-15 14:28N 47°34' W 052°42'9 9.5
2014-Oct-15 13:30N 47°31' W 052°29'  

Dump ship's entire track history